Tiempo atmosférico en la estación meteorológica de A Coruña, A Coruña (58 m.)

Fecha
DESCASC
Temp. máxima en grados centígrados (hora)
DESCASC
Temp. mínima en grados centígrados (hora)
DESCASC
Temp. media en grados centígrados
DESCASC
Racha de viento máxima en m/sg (hora)
DESCASC
Velocidad máxima media en intervalos de 10 minutos(hora)
DESCASC
Precipitaciones diarias en mm
DESCASC
Precipitaciones de 00:00 a 06:00 en mm
DESCASC
Precipitaciones de 06:00 a 12:00 en mm
DESCASC
Precipitaciones de 12:00 a 18:00 en mm
DESCASC
Precipitaciones de 18:00 a 24:00 en mm
DESCASC
23-11-2017 19 (13:00) 14.1 (23:00) 16.6 12.78 (14:30) 5.83 (21:00) 0 0 0 0 0
22-11-2017 20.3 (16:00) 14.6 (00:00) 17.4 22.22 (16:10) 11.11 (16:10) 6.4 0 0 1.2 5.2
21-11-2017 20.7 (15:10) 10.7 (06:40) 15.7 13.61 (22:00) 6.39 (22:10) 0 0 0 0 0
20-11-2017 19.3 (15:20) 8.3 (06:40) 13.8 5.83 (23:59) 4.17 (21:40) 0 0 0 0 0
19-11-2017 18.5 (14:00) 9.1 (00:00) 13.8 6.11 (06:40) 4.44 (06:00) 0 0 0 0 0
18-11-2017 17.8 (15:00) 8.7 (00:00) 13.2 8.89 (17:50) 5.56 (17:50) 0 0 0 0 0
17-11-2017 16.5 (14:10) 8.1 (00:00) 12.3 6.94 (19:30) 3.89 (19:10) 0 0 0 0 0
16-11-2017 15.6 (13:10) 7.1 (00:00) 11.4 6.94 (16:30) 4.72 (16:30) 0 0 0 0 0
15-11-2017 17.1 (13:10) 8.6 (00:00) 12.9 5 (03:00) 3.33 (03:40) 0 0 0 0 0
14-11-2017 15.8 (15:00) 8 (00:00) 11.9 7.78 (03:40) 4.17 (03:40) 0 0 0 0 0
13-11-2017 15.1 (13:40) 10.1 (00:00) 12.6 10 (16:30) 6.39 (14:00) 0.2 0.2 0 0 0
12-11-2017 15.6 (15:20) 13.1 (00:00) 14.4 9.72 (14:20) 5.56 (13:10) 2.4 0 0 2 0.4
11-11-2017 16.2 (13:20) 12.9 (00:00) 14.6 6.11 (22:50) 4.17 (22:30) 0.4 0 0 0 0.4
10-11-2017 14.8 (14:10) 12.3 (00:00) 13.6 9.44 (09:10) 6.11 (09:10) 2 0.6 1.4 0 0
09-11-2017 13.4 (13:10) 10.7 (00:00) 12 9.44 (19:30) 5.56 (19:30) 5 1.4 2.6 0.6 0.4
08-11-2017 14.1 (14:10) 9 (00:00) 11.6 10.28 (13:10) 6.39 (15:50) 2.2 0.8 1.2 0.2 0
07-11-2017 14.2 (16:10) 7.8 (00:00) 11 12.78 (21:20) 8.06 (21:20) 2 0 0 2 0
06-11-2017 15.2 (15:10) 8.7 (00:00) 11.9 6.11 (19:10) 3.61 (17:40) 0 0 0 0 0
05-11-2017 15.6 (12:20) 11.8 (00:00) 13.7 9.72 (01:10) 5.83 (01:30) 0.4 0 0 0.2 0.2
04-11-2017 17.4 (13:30) 13.3 (00:00) 15.3 14.17 (15:40) 9.17 (15:40) 0.4 0 0.4 0 0
03-11-2017 18.2 (13:00) 14.1 (00:00) 16.2 6.67 (04:10) 3.61 (04:10) 0.4 0.2 0 0 0.2
02-11-2017 20.2 (15:50) 13.7 (11:30) 17 10.28 (09:40) 5 (14:50) 13.8 0.6 10.8 0 2.4
01-11-2017 19.8 (11:50) 13.3 (00:00) 16.5 10.83 (12:40) 4.44 (13:00) 0 0 0 0 0
31-10-2017 20.6 (14:10) 11.1 (00:00) 15.9 8.61 (00:30) 6.11 (00:50) 0 0 0 0 0
30-10-2017 18.1 (14:30) 14.3 (00:00) 16.2 12.22 (21:40) 7.5 (15:30) 0 0 0 0 0
29-10-2017 19.7 (13:10) 12.7 (00:00) 16.2 11.67 (16:50) 7.5 (14:10) 0 0 0 0 0
28-10-2017 19.7 (13:40) 14 (00:00) 16.9 8.61 (17:20) 5.28 (17:20) 0 0 0 0 0
27-10-2017 24.6 (16:00) 15.6 (00:00) 20.1 5.83 (07:40) 4.17 (07:40) 0 0 0 0 0
26-10-2017 23.7 (14:50) 15.2 (00:00) 19.5 8.61 (11:10) 5 (07:20) 0 0 0 0 0

Gráficas

Temp. máximas Temp. mínimas Temp. medias Precipitaciones Rachas de viento máximas Velocidades máximas media en intervalos de 10 minutos

Datos horarios

Fecha y hora oficial Temperatura (ºC) Velocidad del viento (km/h) Dirección del viento Racha (km/h) Dirección de racha Precipitación (mm) Presión (hPa) Tendencia (hPa) Humedad (%)
2017-11-24 23:00:00 11.9 12 Nordeste 24 Norte 0.6 1012.8 3 97
2017-11-24 22:00:00 11.9 11 Norte 26 Norte 1.2 1011.8 2.6 96
2017-11-24 21:00:00 12 13 Norte 31 Norte 1.6 1011 2.2 97
2017-11-24 20:00:00 12.4 4 Norte 6 Nordeste 3 1009.8 1.3 97
2017-11-24 19:00:00 12.7 2 Noroeste 6 Noroeste 1.6 1009.2 0.8 98
2017-11-24 18:00:00 12.8 2 Sudeste 8 Sur 0.8 1008.8 0.2 97
2017-11-24 17:00:00 12.7 5 Sudeste 7 Sudeste 1 1008.5 -0.5 97
2017-11-24 16:00:00 12.6 0 Calma 8 Nordeste 2.8 1008.4 -0.9 96
2017-11-24 15:00:00 12.9 5 Nordeste 7 Nordeste 1.8 1008.6 -1.2 94
2017-11-24 14:00:00 13.2 3 Nordeste 8 Este 1.8 1009 -0.5 91
2017-11-24 13:00:00 13.4 3 Este 8 Sur 2 1009.3 0.2 90
2017-11-24 12:00:00 13.5 5 Sur 12 Sur 1.2 1009.8 1.3 85
2017-11-24 11:00:00 13.4 5 Sudeste 13 Sur 0.4 1009.5 1.8 85
2017-11-24 10:00:00 13.4 10 Sur 13 Sur 0 1009.1 1.8 88
2017-11-24 09:00:00 12.9 4 Sudeste 8 Sur 0 1008.5 1.6 90
2017-11-24 08:00:00 12.9 5 Sur 12 Sur 0 1007.7 0.9 91
2017-11-24 07:00:00 12.8 8 Sudeste 24 Sur 0 1007.3 0.7 92
2017-11-24 06:00:00 12.8 13 Sur 22 Sur 0 1006.9 0.4 93
2017-11-24 05:00:00 13.3 7 Sudeste 12 Sudeste 0.4 1006.8 0.4 89
2017-11-24 04:00:00 13.8 5 Sur 18 Sudoeste 0 1006.6 0.2 84
2017-11-24 03:00:00 13.8 12 Sudoeste 22 Sudoeste 0 1006.5 -0.1 84
2017-11-24 02:00:00 13.3 12 Sudoeste 23 Sudoeste 0.2 1006.4 0.2 90
2017-11-24 01:00:00 13.4 10 Oeste 24 Oeste 0 1006.4 0.1 93
2017-11-24 00:00:00 14.1 13 Oeste 24 Oeste 0 1006.6 1 92
2017-11-23 23:00:00 14.1 14 Oeste 34 Oeste 0 1006.2 1.1 94
2017-11-23 22:00:00 14.4 13 Oeste 30 Oeste 0 1006.3 1.9 89
2017-11-23 21:00:00 14.5 21 Oeste 34 Oeste 0 1005.6 1.7 87
2017-11-23 20:00:00 16.8 13 Sudoeste 30 Sudoeste 0 1005.1 1.3 73
2017-11-23 19:00:00 16.8 15 Sur 34 Sudeste 0 1004.4 1 73
2017-11-23 18:00:00 17.3 12 Sudoeste 38 Sudoeste 0 1003.9 1 71
2017-11-23 17:00:00 17.9 13 Sudoeste 36 Sur 0 1003.8 0.8 69
2017-11-23 16:00:00 18.4 16 Sur 42 Sudoeste 0 1003.4 0.1 65
2017-11-23 15:00:00 18.3 18 Sur 46 Sur 0 1002.9 -0.5 68
2017-11-23 14:00:00 18.7 16 Sur 41 Sur 0 1003 0.2 68
2017-11-23 13:00:00 18.9 13 Sur 34 Sudoeste 0 1003.3 0.8 66
2017-11-23 12:00:00 18 16 Sur 35 Sur 0 1003.4 1.2 69
2017-11-23 11:00:00 17.1 17 Sur 42 Sur 0 1002.8 1.2 72
2017-11-23 10:00:00 15.1 3 Sudeste 13 Sudeste 0 1002.5 1.6 84
2017-11-23 09:00:00 14.3 9 Sudeste 15 Sudeste 0 1002.2 1.9 85
2017-11-23 08:00:00 14.6 8 Sudeste 26 Sudoeste 0 1001.6 2.1 81
2017-11-23 07:00:00 15.3 15 Sudoeste 28 Sudoeste 0 1000.9 1.8 78
2017-11-23 06:00:00 15.4 9 Sudoeste 30 Sur 0 1000.3 2 79
2017-11-23 05:00:00 15.3 12 Sudoeste 32 Sur 0 999.5 1.5 80
2017-11-23 04:00:00 15.7 18 Sudoeste 33 Oeste 0 999.1 1.3 79
2017-11-23 03:00:00 16 14 Sudoeste 28 Sudoeste 0 998.3 0.8 79
2017-11-23 02:00:00 15.9 13 Sudoeste 23 Sur 0 998 0.8 78
2017-11-23 01:00:00 16.1 16 Sudoeste 31 Sudoeste 0 997.8 1.3 76
2017-11-23 00:00:00 16.2 15 Sudoeste 33 Sudoeste 0 997.5 1.7 76
2017-11-22 23:00:00 16.6 15 Sudoeste 31 Sudoeste 0 997.2 2.1 76
2017-11-22 22:00:00 16.6 19 Sudoeste 43 Sudoeste 0 996.5 1.8 78
2017-11-22 21:00:00 16.6 22 Sudoeste 51 Sudoeste 0 995.8 0.8 81
2017-11-22 20:00:00 16.1 17 Sudoeste 43 Sudoeste 0 995.1 1.1 82
2017-11-22 19:00:00 15.4 21 Sudoeste 53 Sudoeste 5.2 994.7 1.6 83
2017-11-22 18:00:00 16.7 21 Sudoeste 68 Sudoeste 1.2 995 1.8 69
2017-11-22 17:00:00 19 36 Sudoeste 80 Sudoeste 0 994 -0.5 48
2017-11-22 16:00:00 20.3 35 Sudoeste 69 Sur 0 993.1 -5 37
2017-11-22 15:00:00 19.7 19 Sur 56 Sur 0 993.2 -5.4 37
2017-11-22 14:00:00 19.1 26 Sur 57 Sur 0 994.5 -4.2 44
2017-11-22 13:00:00 18.5 18 Sur 57 Sudeste 0 998.1 -0.6 52
2017-11-22 12:00:00 18.2 19 Sur 50 Sur 0 998.6 -0.1 47
2017-11-22 11:00:00 16.9 19 Sur 46 Sur 0 998.7 0 45
2017-11-22 10:00:00 16.6 22 Sur 54 Sur 0 998.7 -0.6 42
2017-11-22 09:00:00 16.3 23 Sur 54 Sur 0 998.7 -1.4 42
2017-11-22 08:00:00 16 24 Sur 51 Sur 0 998.7 -2.2 46
2017-11-22 07:00:00 15.8 22 Sur 53 Sur 0 999.3 -2.2 52
2017-11-22 06:00:00 16 26 Sur 58 Sur 0 1000.1 -2 54
2017-11-22 05:00:00 15.9 20 Sur 61 Sur 0 1000.9 -2.7 60
2017-11-22 04:00:00 16.2 28 Sur 70 Sur 0 1001.5 -3.1 60
2017-11-22 03:00:00 15.7 14 Sur 53 Sudeste 0 1002.1 -3.5 64
2017-11-22 02:00:00 15 7 Sur 31 Sur 0 1003.6 -2.9 70
2017-11-22 01:00:00 14.6 14 Sur 36 Sur 0 1004.6 -2.3 69
2017-11-22 00:00:00 14.6 10 Sur 33 Sur 0 1005.6 -1.1 67
2017-11-21 23:00:00 14.8 13 Sur 41 Sudoeste 0 1006.5 -0.5 63
2017-11-21 22:00:00 15.5 22 Sur 49 Sur 0 1006.9 -1.2 56
2017-11-21 21:00:00 15.2 12 Sur 33 Sur 0 1006.7 -1.3 45
2017-11-21 20:00:00 15.7 18 Sur 30 Sudeste 0 1007 -1.1 43
2017-11-21 19:00:00 16.5 5 Sur 14 Sur 0 1008.1 -0.3 40
2017-11-21 18:00:00 18 3 Sudeste 16 Sur 0 1008 -0.8 37
2017-11-21 17:00:00 19.2 8 Sur 23 Sur 0 1008.1 -1.1 33
2017-11-21 16:00:00 20 10 Sur 30 Sudeste 0 1008.4 -1.4 30
2017-11-21 15:00:00 20.6 14 Sur 36 Sur 0 1008.8 -2.4 27
2017-11-21 14:00:00 19.5 10 Sur 30 Sur 0 1009.2 -2.2 30
2017-11-21 13:00:00 19.3 11 Sur 37 Sur 0 1009.8 -1.9 31
2017-11-21 12:00:00 17.7 8 Sudeste 27 Sudeste 0 1011.2 -0.5 35
2017-11-21 11:00:00 15 5 Sudeste 11 Sur 0 1011.4 -0.2 44
2017-11-21 10:00:00 13 6 Sudeste 15 Sudeste 0 1011.7 -0.1 46
2017-11-21 09:00:00 11.7 9 Sudeste 14 Sudeste 0 1011.7 -0.2 50
2017-11-21 08:00:00 10.8 8 Sudeste 14 Sudeste 0 1011.6 -0.5 54
2017-11-21 07:00:00 10.7 10 Sudeste 14 Sudeste 0 1011.8 -0.4 55
2017-11-21 06:00:00 11.4 10 Sudeste 15 Sudeste 0 1011.9 -0.3 53
2017-11-21 05:00:00 12.5 12 Sur 17 Sudeste 0 1012.1 -0.3 50
2017-11-21 04:00:00 13.1 10 Sur 21 Sur 0 1012.2 -0.5 47
2017-11-21 03:00:00 13.6 12 Sur 23 Sur 0 1012.2 -0.6 46
2017-11-21 02:00:00 13.1 13 Sur 22 Sur 0 1012.4 -0.8 50
2017-11-21 01:00:00 12.3 10 Sudeste 17 Sur 0 1012.7 -0.8 54
2017-11-21 00:00:00 12 12 Sur 21 Sur 0 1012.8 -0.8 55
2017-11-20 23:00:00 12.2 10 Sudeste 16 Sudeste 0 1013.2 -0.6 53
2017-11-20 22:00:00 12.9 12 Sudeste 21 Sudeste 0 1013.5 0 52
2017-11-20 21:00:00 13.1 13 Sudeste 17 Sudeste 0 1013.6 0.4 59
2017-11-20 20:00:00 13.2 4 Sur 9 Sudeste 0 1013.8 0.6 65
2017-11-20 19:00:00 14.1 3 Sudeste 6 Este 0 1013.5 0.5 53
2017-11-20 18:00:00 15.3 4 Oeste 7 Noroeste 0 1013.2 -0.1 47
2017-11-20 17:00:00 17.1 3 Oeste 5 Nordeste 0 1013.2 -0.2 41
2017-11-20 16:00:00 18.2 4 Norte 7 Norte 0 1013 -1.1 37
2017-11-20 15:00:00 18.9 3 Este 9 Este 0 1013.3 -1.4 42
2017-11-20 14:00:00 18.7 5 Este 11 Sudeste 0 1013.4 -1.4 42
2017-11-20 13:00:00 18.1 5 Sudeste 10 Sudeste 0 1014.1 -0.5 42
2017-11-20 12:00:00 16.5 7 Sudeste 12 Sudeste -- 1014.7 0.4 49
2017-11-20 11:00:00 14.9 4 Sur 17 Sur 0 1014.8 0.4 56
2017-11-20 10:00:00 12 9 Sur 16 Sur 0 1014.6 0.4 60
2017-11-20 09:00:00 9.6 6 Sur 13 Sur 0 1014.3 0.4 72
2017-11-20 08:00:00 8.7 4 Sur 7 Sur 0 1014.4 0.8 82
2017-11-20 07:00:00 8.3 3 Sur 7 Sur 0 1014.2 0.6 87
2017-11-20 06:00:00 8.6 2 Sur 10 Sur 0 1013.9 0.1 86
2017-11-20 05:00:00 9.2 6 Sur 14 Sudeste 0 1013.6 -0.6 86
2017-11-20 04:00:00 9.4 9 Sudeste 13 Sur 0 1013.6 -1.3 86
2017-11-20 03:00:00 10 4 Sudeste 13 Sudeste 0 1013.8 -1.1 84
2017-11-20 02:00:00 10.1 10 Sudeste 18 Sur 0 1014.2 -0.9 86
2017-11-20 01:00:00 10.3 6 Sudeste 13 Este 0 1014.9 0 84
2017-11-20 00:00:00 11.8 5 Sudeste 19 Sur 0 1014.9 0.2 79
2017-11-19 23:00:00 11.6 7 Sudeste 11 Sur 0 1015.1 0.5 80
2017-11-19 22:00:00 12.2 2 Noroeste 5 Sudoeste 0 1014.9 0.5 74
2017-11-19 21:00:00 12.5 4 Sur 15 Sur 0 1014.7 0.9 74
2017-11-19 20:00:00 12.7 3 Sudeste 6 Noroeste 0 1014.6 0.8 72
2017-11-19 19:00:00 13.1 6 Oeste 9 Noroeste 0 1014.4 1 68
2017-11-19 18:00:00 13.9 2 Sudoeste 9 Oeste 0 1013.8 0.2 67
2017-11-19 17:00:00 15.1 4 Oeste 7 Noroeste 0 1013.8 -0.3 68
2017-11-19 16:00:00 15.9 3 Norte 5 Norte 0 1013.4 -0.9 68
2017-11-19 15:00:00 17.4 2 Norte 9 Norte 0 1013.6 -1 66
2017-11-19 14:00:00 18.5 4 Nordeste 7 Nordeste 0 1014.1 -0.7 57
2017-11-19 13:00:00 17.7 3 Sudeste 10 Sudeste 0 1014.3 -0.2 58
2017-11-19 12:00:00 15.1 7 Sudeste 13 Sudeste 0 1014.6 0.5 61
2017-11-19 11:00:00 12.5 6 Sudeste 15 Sudeste 0 1014.8 1.2 67
2017-11-19 10:00:00 10.3 5 Sudeste 19 Sudeste 0 1014.5 1.5 76
2017-11-19 09:00:00 9.1 13 Sudeste 18 Sudeste 0 1014.1 1.1 79
2017-11-19 08:00:00 9.4 11 Sudeste 19 Sur 0 1013.6 0.4 80
2017-11-19 07:00:00 9.5 12 Sudeste 22 Sudeste 0 1013 -0.5 82
2017-11-19 06:00:00 9.3 16 Sudeste 21 Sur 0 1013 -0.4 84
2017-11-19 05:00:00 9.4 10 Sur 16 Sudeste 0 1013.2 -0.4 84
2017-11-19 04:00:00 9.6 7 Sudeste 19 Sudeste 0 1013.5 -0.3 85
2017-11-19 03:00:00 9.5 9 Sudeste 17 Sudeste 0 1013.4 -0.4 87
2017-11-19 02:00:00 10 9 Sudeste 13 Sudeste 0 1013.6 -0.1 85
2017-11-19 01:00:00 10.3 8 Sudeste 13 Este 0 1013.8 0 86
2017-11-19 00:00:00 10.6 7 Este 13 Sudeste 0 1013.8 0 85
2017-11-18 23:00:00 11 3 Este 11 Sudeste 0 1013.7 -0.1 83
2017-11-18 22:00:00 11.6 5 Este 16 Sudeste 0 1013.8 0.2 82
2017-11-18 21:00:00 12.4 10 Este 18 Este 0 1013.8 0.3 83
2017-11-18 20:00:00 12.9 9 Este 19 Este 0 1013.8 0.6 81
2017-11-18 19:00:00 13.8 11 Este 19 Este 0 1013.6 0.6 77
2017-11-18 18:00:00 14.5 14 Este 32 Este 0 1013.5 0.1 76
2017-11-18 17:00:00 16 8 Este 15 Este 0 1013.2 -0.6 69
2017-11-18 16:00:00 16.5 8 Nordeste 12 Nordeste 0 1013 -1.3 66
2017-11-18 15:00:00 17.5 6 Este 10 Nordeste 0 1013.4 -1.4 62
2017-11-18 14:00:00 16.9 6 Nordeste 12 Este 0 1013.8 -1.1 57
2017-11-18 13:00:00 16.8 5 Este 13 Este 0 1014.3 -0.5 59
2017-11-18 12:00:00 15.3 6 Sudeste 13 Sudeste 0 1014.8 0.5 62
2017-11-18 11:00:00 13.3 6 Este 11 Este 0 1014.9 0.8 70
2017-11-18 10:00:00 11.3 5 Sudeste 14 Sudeste 0 1014.8 1 79
2017-11-18 09:00:00 9.5 9 Sudeste 14 Sudeste 0 1014.3 0.5 84
2017-11-18 08:00:00 8.9 6 Sudeste 11 Sudeste 0 1014.1 0 87
2017-11-18 07:00:00 9.2 5 Sudeste 14 Sudeste 0 1013.8 -0.6 86
2017-11-18 06:00:00 9.5 8 Sudeste 13 Sudeste 0 1013.8 -0.5 88
2017-11-18 05:00:00 9.6 7 Este 11 Este 0 1014.1 -0.1 90
2017-11-18 04:00:00 9.6 4 Este 7 Sudeste 0 1014.4 -0.4 88
2017-11-18 03:00:00 9.7 2 Sur 11 Sudeste 0 1014.3 -0.6 87
2017-11-18 02:00:00 10.1 5 Sudeste 10 Sudeste 0 1014.2 -0.8 86
2017-11-18 01:00:00 10.6 6 Sudeste 12 Sur 0 1014.8 0.1 85
2017-11-18 00:00:00 10.9 6 Sudeste 11 Sudeste 0 1014.9 0.6 85
2017-11-17 23:00:00 11 6 Sudeste 9 Sudeste 0 1015 0.8 85
2017-11-17 22:00:00 11.5 7 Este 15 Este 0 1014.7 0.6 86
2017-11-17 21:00:00 12.1 6 Este 14 Este 0 1014.3 0.7 83
2017-11-17 20:00:00 12.8 10 Este 25 Este 0 1014.2 0.8 82
2017-11-17 19:00:00 13.4 13 Este 23 Nordeste 0 1014.1 0.5 81
2017-11-17 18:00:00 14.4 10 Nordeste 24 Nordeste 0 1013.6 -0.3 78
2017-11-17 17:00:00 15.1 11 Nordeste 16 Nordeste 0 1013.4 -0.9 75
2017-11-17 16:00:00 15.8 3 Norte 9 Noroeste 0 1013.6 -1.2 73
2017-11-17 15:00:00 16.1 5 Noroeste 9 Norte 0 1013.9 -1.5 71
2017-11-17 14:00:00 16.1 4 Este 6 Nordeste 0 1014.3 -1.1 67
2017-11-17 13:00:00 15 5 Este 10 Este 0 1014.8 -0.7 70
2017-11-17 12:00:00 14 3 Este 8 Sudeste 0 1015.4 0 74
2017-11-17 11:00:00 12.4 3 Sudeste 9 Sudeste 0 1015.4 0.4 81
2017-11-17 10:00:00 9.9 2 Sudeste 9 Sur 0 1015.5 0.8 91
2017-11-17 09:00:00 8.2 3 Sudeste 9 Sudeste 0 1015.4 0.6 94
2017-11-17 08:00:00 8.5 4 Sudeste 10 Sudeste 0 1015 0.3 94
2017-11-17 07:00:00 8.3 6 Sur 9 Sur 0 1014.7 -0.2 97
2017-11-17 06:00:00 8.2 6 Sudeste 13 Sur 0 1014.8 -0.1 98
2017-11-17 05:00:00 8.1 5 Sur 10 Sur 0 1014.7 -0.4 99
2017-11-17 04:00:00 8.6 2 Sudeste 9 Sudeste 0 1014.9 -0.3 99
2017-11-17 03:00:00 9.1 4 Sudeste 10 Sudeste 0 1014.9 -0.3 99
2017-11-17 02:00:00 9.4 3 Sudeste 11 Sudeste 0 1015.1 -0.1 98
2017-11-17 01:00:00 10.2 5 Sudeste 14 Sudeste 0 1015.2 0.3 98
2017-11-17 00:00:00 10.8 7 Sudeste 11 Sudeste 0 1015.2 0.3 96
2017-11-16 23:00:00 11.3 5 Este 13 Nordeste 0 1015.2 0.4 92
2017-11-16 22:00:00 11.9 9 Nordeste 15 Este 0 1014.9 0.5 90
2017-11-16 21:00:00 12.4 7 Nordeste 13 Nordeste 0 1014.9 0.8 90
2017-11-16 20:00:00 12.7 5 Nordeste 13 Norte 0 1014.8 1 88
2017-11-16 19:00:00 13 3 Noroeste 6 Nordeste 0 1014.4 0.4 88
2017-11-16 18:00:00 13.6 4 Nordeste 16 Norte 0 1014.1 0.1 88
2017-11-16 17:00:00 14 10 Norte 25 Norte 0 1013.8 -0.7 87
2017-11-16 16:00:00 14.3 10 Noroeste 19 Noroeste 0 1014 -0.6 88
2017-11-16 15:00:00 14.4 6 Noroeste 16 Norte 0 1014 -0.9 84
2017-11-16 14:00:00 14.6 7 Norte 12 Norte 0 1014.5 -0.2 79
2017-11-16 13:00:00 15.5 5 Nordeste 8 Nordeste 0 1014.6 0.1 67
2017-11-16 12:00:00 14.4 4 Este 14 Sudeste 0 1014.9 1 63
2017-11-16 11:00:00 11.3 8 Sudeste 14 Sudeste 0 1014.7 1.2 72
2017-11-16 10:00:00 9.5 5 Sudeste 11 Sudeste 0 1014.5 1.3 80
2017-11-16 09:00:00 8 8 Sur 17 Sur 0 1013.9 1 84
2017-11-16 08:00:00 7.5 7 Sudeste 12 Sudeste 0 1013.5 1 86
2017-11-16 07:00:00 7.2 6 Sudeste 9 Sudeste 0 1013.2 0.6 89
2017-11-16 06:00:00 7.5 3 Sudeste 11 Sur 0 1012.9 0.3 89
2017-11-16 05:00:00 7.6 5 Sudeste 8 Sur 0 1012.5 0 91
2017-11-16 04:00:00 8.1 5 Sudeste 9 Sudeste 0 1012.6 0.1 92
2017-11-16 03:00:00 8.3 7 Sur 11 Sur 0 1012.6 0.1 93
2017-11-16 02:00:00 8.5 3 Sudeste 5 Sur 0 1012.5 -0.2 95
2017-11-16 01:00:00 9 4 Sudeste 6 Sur 0 1012.5 -0.3 94
2017-11-16 00:00:00 9.7 3 Sur 6 Sur 0 1012.5 -0.2 93
2017-11-15 23:00:00 10.4 3 Sur 5 Sur 0 1012.7 0.2 92
2017-11-15 22:00:00 11.3 3 Sudeste 6 Sur 0 1012.8 0.3 90
2017-11-15 21:00:00 12.1 6 Sur 8 Sur 0 1012.7 0.4 90
2017-11-15 20:00:00 12.4 3 Sur 5 Sudeste 0 1012.5 0.5 89
2017-11-15 19:00:00 12.4 2 Noroeste 6 Noroeste 0 1012.5 0.8 88
2017-11-15 18:00:00 13.3 6 Noroeste 13 Noroeste 0 1012.3 0.6 85
2017-11-15 17:00:00 14 8 Noroeste 14 Noroeste 0 1012 0 79
2017-11-15 16:00:00 14.7 8 Norte 14 Norte 0 1011.7 -0.9 75
2017-11-15 15:00:00 16.1 6 Norte 11 Norte 0 1011.7 -1.4 64
2017-11-15 14:00:00 16.2 5 Norte 10 Nordeste 0 1012 -1 52
2017-11-15 13:00:00 17 5 Nordeste 7 Nordeste 0 1012.6 0.2 56
2017-11-15 12:00:00 16 3 Este 6 Sudeste 0 1013.1 1 58
2017-11-15 11:00:00 13.9 4 Este 5 Nordeste 0 1013 1.3 67
2017-11-15 10:00:00 11.3 0 Calma 13 Sur 0 1012.4 1.2 72
2017-11-15 09:00:00 9.8 10 Sur 15 Sur 0 1012.1 1.2 73
2017-11-15 08:00:00 8.7 6 Sur 9 Sur 0 1011.7 0.7 80
2017-11-15 07:00:00 9.1 5 Sudeste 14 Sudeste 0 1011.2 0 78
2017-11-15 06:00:00 9.5 8 Sudeste 17 Sur 0 1010.9 -0.2 78
2017-11-15 05:00:00 9.3 4 Sudeste 14 Sudeste 0 1011 -0.5 79
2017-11-15 04:00:00 9.4 7 Sudeste 18 Sudeste 0 1011.2 -0.7 79
2017-11-15 03:00:00 9.5 12 Sudeste 18 Sudeste 0 1011.1 -1.1 79
2017-11-15 02:00:00 9.5 6 Sudeste 10 Sudeste 0 1011.5 -1 80
2017-11-15 01:00:00 9.6 3 Este 10 Sudeste 0 1011.9 -0.7 79
2017-11-15 00:00:00 9.9 6 Sudeste 15 Sudeste 0 1012.2 -0.4 80
2017-11-14 23:00:00 10.6 9 Sudeste 14 Sudeste 0 1012.5 -0.4 79
2017-11-14 22:00:00 11 5 Este 14 Este 0 1012.6 0.1 81
2017-11-14 21:00:00 11.6 6 Este 13 Sudeste 0 1012.6 0.2 80
2017-11-14 20:00:00 12.2 6 Este 13 Este 0 1012.9 0.2 77
2017-11-14 19:00:00 13 9 Nordeste 14 Nordeste 0 1012.5 -0.5 75
2017-11-14 18:00:00 13.9 10 Este 16 Nordeste 0 1012.4 -1 68
2017-11-14 17:00:00 14.4 6 Nordeste 10 Nordeste 0 1012.7 -1.6 63
2017-11-14 16:00:00 14.8 5 Norte 10 Nordeste 0 1013 -2.2 59
2017-11-14 15:00:00 15.8 7 Nordeste 11 Nordeste 0 1013.4 -2.6 55
2017-11-14 14:00:00 15.3 7 Nordeste 10 Nordeste 0 1014.3 -2.2 54
2017-11-14 13:00:00 15.1 6 Sudeste 16 Este 0 1015.2 -1.4 54
2017-11-14 12:00:00 12.7 11 Nordeste 22 Este 0 1016 -0.5 62
2017-11-14 11:00:00 11.6 9 Este 17 Este 0 1016.5 0 63
2017-11-14 10:00:00 9.4 9 Sudeste 16 Sudeste 0 1016.6 0.1 70
2017-11-14 09:00:00 8 10 Sudeste 15 Sudeste 0 1016.5 -0.4 76
2017-11-14 08:00:00 8.2 10 Sudeste 15 Sudeste 0 1016.5 -0.1 79
2017-11-14 07:00:00 8.5 8 Este 12 Sudeste 0 1016.5 -0.5 78
2017-11-14 06:00:00 8.9 3 Sudeste 12 Este 0 1016.9 -0.5 76
2017-11-14 05:00:00 9.5 6 Este 24 Este 0 1016.6 -1 77
2017-11-14 04:00:00 10.1 11 Este 28 Este 0 1017 -1 77
2017-11-14 03:00:00 10.1 13 Nordeste 25 Nordeste 0 1017.4 -1.1 75
2017-11-14 02:00:00 9.6 9 Este 20 Este 0 1017.6 -1.4 79
2017-11-14 01:00:00 9.5 7 Este 13 Nordeste 0 1018 -1 80
2017-11-14 00:00:00 10.1 10 Este 14 Nordeste 0 1018.5 -0.5 77
2017-11-13 23:00:00 10.5 8 Este 17 Este 0 1019 -0.2 73
2017-11-13 22:00:00 11 12 Este 24 Nordeste 0 1019 0 70
2017-11-13 21:00:00 11.3 12 Nordeste 25 Nordeste 0 1019 0.4 69
2017-11-13 20:00:00 11.7 17 Nordeste 28 Nordeste 0 1019.2 0.8 70
2017-11-13 19:00:00 12.2 19 Nordeste 30 Nordeste 0 1019 0.7 68
2017-11-13 18:00:00 12.8 17 Nordeste 36 Nordeste 0 1018.6 0 66
2017-11-13 17:00:00 13.6 18 Nordeste 36 Nordeste 0 1018.4 -0.9 67
2017-11-13 16:00:00 14 18 Nordeste 35 Este 0 1018.3 -1.5 66
2017-11-13 15:00:00 14.7 20 Nordeste 32 Este 0 1018.6 -1.7 61
2017-11-13 14:00:00 14.7 23 Nordeste 33 Este 0 1019.3 -1.1 59
2017-11-13 13:00:00 14.6 21 Nordeste 32 Nordeste 0 1019.8 -0.1 61
2017-11-13 12:00:00 14.1 13 Nordeste 22 Este 0 1020.3 0.6 68
2017-11-13 11:00:00 13.2 13 Nordeste 19 Nordeste 0 1020.4 1.2 72
2017-11-13 10:00:00 12.3 12 Este 18 Este 0 1019.9 0.9 77
2017-11-13 09:00:00 11 10 Este 15 Este 0 1019.7 0.8 84
2017-11-13 08:00:00 11.1 11 Nordeste 21 Este 0 1019.2 0.2 85
2017-11-13 07:00:00 11.5 13 Este 19 Este 0 1019 0 86
2017-11-13 06:00:00 11.9 12 Nordeste 21 Este 0 1018.9 0 86
2017-11-13 05:00:00 12.4 12 Este 26 Nordeste 0 1019 0.2 87
2017-11-13 04:00:00 12.4 17 Nordeste 28 Norte 0 1019 0.3 90
2017-11-13 03:00:00 12.7 15 Nordeste 27 Nordeste 0 1018.9 0.3 92
2017-11-13 02:00:00 13.3 15 Nordeste 24 Norte 0 1018.8 0.3 94
2017-11-13 01:00:00 13.5 13 Nordeste 21 Nordeste 0.2 1018.7 0.4 97
2017-11-13 00:00:00 13.8 5 Norte 9 Norte 0 1018.6 0.6 98
2017-11-12 23:00:00 13.7 4 Norte 6 Norte 0.2 1018.5 0.4 98
2017-11-12 22:00:00 13.6 3 Oeste 5 Sudoeste 0 1018.3 0.7 98
2017-11-12 21:00:00 13.7 3 Sudoeste 6 Oeste 0.2 1018 0.7 98
2017-11-12 20:00:00 13.8 4 Oeste 9 Oeste 0 1018.1 0.8 98
2017-11-12 19:00:00 13.8 4 Oeste 10 Oeste 0 1017.6 0.4 98
2017-11-12 18:00:00 14 7 Noroeste 20 Noroeste 0 1017.3 0.1 97
2017-11-12 17:00:00 14.4 15 Oeste 31 Oeste 1 1017.3 -0.3 97
2017-11-12 16:00:00 15.5 9 Oeste 26 Sudoeste 0 1017.2 -0.6 94
2017-11-12 15:00:00 15.1 13 Oeste 35 Sudoeste 0.2 1017.2 -1.2 96
2017-11-12 14:00:00 14.9 16 Oeste 33 Oeste 0.8 1017.6 -0.8 94
2017-11-12 13:00:00 15.1 17 Sudoeste 34 Sudoeste 0 1017.8 -0.9 90
2017-11-12 12:00:00 15.2 13 Sudoeste 29 Sudoeste 0 1018.4 -0.3 87
2017-11-12 11:00:00 14.7 17 Sudoeste 32 Oeste 0 1018.4 -0.6 84
2017-11-12 10:00:00 14.2 10 Sudoeste 21 Sudoeste 0 1018.7 -0.4 85
2017-11-12 09:00:00 13.6 13 Sudoeste 21 Sudoeste 0 1018.7 -0.6 90
2017-11-12 08:00:00 13.4 11 Sudoeste 17 Sudoeste 0 1019 -0.3 92
2017-11-12 07:00:00 13.2 12 Sudoeste 20 Sudoeste 0 1019.1 -0.6 93
2017-11-12 06:00:00 13.5 12 Oeste 20 Sudoeste 0 1019.3 -0.7 88
2017-11-12 05:00:00 13.4 7 Sudoeste 13 Sudoeste 0 1019.3 -1.1 87
2017-11-12 04:00:00 13.3 9 Sudoeste 21 Oeste 0 1019.7 -1.3 93
2017-11-12 03:00:00 13.6 9 Oeste 18 Sudoeste 0 1020 -1.3 89
2017-11-12 02:00:00 13.4 12 Sudoeste 19 Sudoeste 0 1020.4 -1.5 91
2017-11-12 01:00:00 13.3 8 Sudoeste 13 Sudoeste 0 1021 -1 93
2017-11-12 00:00:00 13.1 4 Sudoeste 12 Oeste 0.2 1021.3 -0.5 95
2017-11-11 23:00:00 13.1 10 Noroeste 22 Noroeste 0 1021.9 -0.1 96
2017-11-11 22:00:00 13.6 8 Oeste 14 Oeste 0.2 1022 0 94
2017-11-11 21:00:00 13.7 4 Oeste 11 Oeste 0 1021.8 -0.3 91
2017-11-11 20:00:00 13.8 5 Sudoeste 17 Noroeste 0 1022 -0.4 90
2017-11-11 19:00:00 13.9 5 Oeste 11 Oeste 0 1022 -0.7 91
2017-11-11 18:00:00 14.2 3 Noroeste 11 Sudoeste 0 1022.1 -0.8 90
2017-11-11 17:00:00 14.6 7 Oeste 18 Noroeste 0 1022.4 -1.4 88
2017-11-11 16:00:00 14.8 8 Oeste 11 Oeste 0 1022.7 -1.7 84
2017-11-11 15:00:00 14.5 2 Este 15 Norte 0 1022.9 -2 91
2017-11-11 14:00:00 15.2 7 Noroeste 16 Oeste 0 1023.8 -1.3 84
2017-11-11 13:00:00 15.7 8 Oeste 14 Noroeste 0 1024.4 -0.8 82
2017-11-11 12:00:00 15.5 6 Nordeste 8 Nordeste 0 1024.9 -0.1 82
2017-11-11 11:00:00 14.4 3 Oeste 8 Oeste 0 1025.1 0.2 86
2017-11-11 10:00:00 13.6 4 Oeste 7 Oeste 0 1025.2 0.3 89
2017-11-11 09:00:00 13.1 3 Oeste 7 Oeste 0 1025 0.1 88
2017-11-11 08:00:00 13 0 Calma 7 Sudoeste 0 1024.9 -0.2 89
2017-11-11 07:00:00 13 3 Sur 4 Sur 0 1024.9 -0.5 91
2017-11-11 06:00:00 13.1 0 Calma 3 Sur 0 1024.9 -0.8 90
2017-11-11 05:00:00 13.1 0 Calma 3 Nordeste 0 1025.1 -1.1 89
2017-11-11 04:00:00 13.2 0 Calma 5 Nordeste 0 1025.4 -0.9 89
2017-11-11 03:00:00 13.3 3 Este 4 Este 0 1025.7 -1 88
2017-11-11 02:00:00 13.5 3 Nordeste 10 Este 0 1026.2 -1 88
2017-11-11 01:00:00 13.7 5 Este 11 Nordeste 0 1026.3 -1.1 85
2017-11-11 00:00:00 14 8 Norte 22 Norte 0 1026.7 -0.6 80
2017-11-10 23:00:00 13.4 7 Nordeste 22 Norte 0 1027.2 -0.1 90
2017-11-10 22:00:00 13.4 13 Norte 23 Norte 0 1027.4 0.4 89
2017-11-10 21:00:00 13.8 7 Norte 16 Norte 0 1027.3 0.6 92
2017-11-10 20:00:00 13.9 9 Norte 18 Norte 0 1027.3 0.4 91
2017-11-10 19:00:00 13.9 8 Nordeste 18 Norte 0 1027 0.5 91
2017-11-10 18:00:00 14.1 10 Norte 18 Norte 0 1026.7 -0.1 89
2017-11-10 17:00:00 14.4 11 Norte 28 Norte 0 1026.9 -0.1 88
2017-11-10 16:00:00 14.7 11 Norte 20 Norte 0 1026.5 -0.9 87
2017-11-10 15:00:00 14.6 14 Norte 23 Norte 0 1026.8 -1.1 88
2017-11-10 14:00:00 14.7 5 Norte 16 Norte 0 1027 -0.8 93
2017-11-10 13:00:00 14 8 Norte 28 Norte 0 1027.4 -0.1 95
2017-11-10 12:00:00 13.6 20 Norte 32 Norte 0 1027.9 0.7 97
2017-11-10 11:00:00 14.1 13 Norte 27 Norte 0 1027.8 1 95
2017-11-10 10:00:00 13.6 19 Norte 34 Norte 0 1027.5 1.1 98
2017-11-10 09:00:00 13.4 16 Norte 31 Norte 0.8 1027.2 1.3 100
2017-11-10 08:00:00 13.2 10 Norte 17 Norte 0.4 1026.8 1.1 99
2017-11-10 07:00:00 13.3 7 Nordeste 13 Norte 0.2 1026.4 0.6 99
2017-11-10 06:00:00 13.4 6 Noroeste 17 Noroeste 0.2 1025.9 -0.3 99
2017-11-10 05:00:00 13.1 4 Noroeste 14 Noroeste 0.2 1025.7 -0.6 99
2017-11-10 04:00:00 13.1 8 Noroeste 12 Noroeste 0.2 1025.8 -0.7 98
2017-11-10 03:00:00 12.8 5 Oeste 8 Oeste 0 1026.2 -0.2 97
2017-11-10 02:00:00 12.7 5 Oeste 9 Noroeste 0 1026.3 -0.1 95
2017-11-10 01:00:00 12.5 3 Oeste 9 Norte 0 1026.5 0.3 94
2017-11-10 00:00:00 12.4 0 Calma 8 Nordeste 0 1026.4 0.5 93
2017-11-09 23:00:00 12.4 2 Sudeste 11 Este 0 1026.4 0.8 94
2017-11-09 22:00:00 12.3 7 Este 16 Este 0 1026.2 1.4 94
2017-11-09 21:00:00 12.4 10 Este 33 Nordeste 0 1025.9 1.6 96
2017-11-09 20:00:00 12.6 12 Nordeste 34 Norte 0.4 1025.6 1.6 97
2017-11-09 19:00:00 13.2 7 Noroeste 14 Norte 0 1024.8 1 93
2017-11-09 18:00:00 13.2 6 Noroeste 16 Norte 0 1024.3 0.5 93
2017-11-09 17:00:00 13.3 8 Noroeste 13 Norte 0.2 1024 0.1 93
2017-11-09 16:00:00 13.2 6 Norte 14 Noroeste 0 1023.8 -0.3 95
2017-11-09 15:00:00 13 6 Noroeste 10 Noroeste 0.2 1023.8 -0.6 96
2017-11-09 14:00:00 13 4 Noroeste 7 Oeste 0.2 1023.9 -0.5 95
2017-11-09 13:00:00 13.2 4 Noroeste 6 Oeste 0 1024.1 -0.5 91
2017-11-09 12:00:00 12.6 3 Noroeste 6 Oeste 0 1024.4 0.3 97
2017-11-09 11:00:00 11.8 3 Nordeste 4 Sudeste 0.2 1024.4 0.7 98
2017-11-09 10:00:00 11.4 3 Este 8 Este 0.6 1024.6 1.1 98
2017-11-09 09:00:00 11.3 3 Noroeste 11 Oeste 0.4 1024.1 0.9 98
2017-11-09 08:00:00 10.9 5 Sudoeste 8 Sur 0.8 1023.7 0.5 97
2017-11-09 07:00:00 10.8 4 Sudeste 9 Sudeste 0.6 1023.5 0.1 95
2017-11-09 06:00:00 11 3 Sudeste 10 Sur 0 1023.2 0.1 92
2017-11-09 05:00:00 11 3 Sudeste 8 Sur 0 1023.2 -0.2 93
2017-11-09 04:00:00 11 4 Sudeste 6 Sudeste 0 1023.4 0 93
2017-11-09 03:00:00 11.1 2 Sudeste 14 Nordeste 1.4 1023.1 -0.3 93
2017-11-09 02:00:00 11.6 0 Calma 10 Noroeste 0 1023.4 -0.1 89
2017-11-09 01:00:00 12 5 Norte 12 Nordeste 0 1023.4 0.2 88
2017-11-09 00:00:00 12.2 8 Nordeste 23 Norte 0 1023.4 0.4 87
2017-11-08 23:00:00 12.1 12 Norte 19 Norte 0 1023.5 0.6 86
2017-11-08 22:00:00 11.8 6 Nordeste 13 Este 0 1023.2 0.7 81
2017-11-08 21:00:00 12.3 6 Nordeste 17 Nordeste 0 1023 0.8 80
2017-11-08 20:00:00 12.7 11 Nordeste 19 Nordeste 0 1022.9 0.8 79
2017-11-08 19:00:00 12.4 12 Norte 18 Nordeste 0 1022.5 0.6 80
2017-11-08 18:00:00 12.7 12 Nordeste 31 Norte 0 1022.2 0 78
2017-11-08 17:00:00 13.1 21 Norte 33 Norte 0 1022.1 0 76
2017-11-08 16:00:00 13.4 16 Norte 31 Norte 0 1021.9 -0.5 75
2017-11-08 15:00:00 13.8 11 Norte 37 Norte 0 1022.2 -0.6 77
2017-11-08 14:00:00 13.9 15 Norte 37 Norte 0.2 1022.1 -0.7 74
2017-11-08 13:00:00 14 11 Noroeste 17 Oeste 0 1022.4 -0.1 75
2017-11-08 12:00:00 11.8 6 Noroeste 12 Noroeste 1.2 1022.8 0.7 85
2017-11-08 11:00:00 11.4 5 Sudeste 14 Este 0 1022.8 1.2 82
2017-11-08 10:00:00 9.8 2 Oeste 4 Sur 0 1022.5 0.9 88
2017-11-08 09:00:00 9.1 3 Este 8 Sur 0 1022.1 1 88
2017-11-08 08:00:00 9.5 4 Sur 8 Sur 0 1021.6 0.5 85
2017-11-08 07:00:00 10.1 4 Sudeste 14 Este 0 1021.6 0.3 82
2017-11-08 06:00:00 11.2 6 Este 24 Norte 0 1021.1 0.1 77
2017-11-08 05:00:00 10.9 4 Este 28 Noroeste 0.8 1021.1 0.1 81
2017-11-08 04:00:00 11.9 13 Norte 29 Noroeste 0 1021.3 0.6 76
2017-11-08 03:00:00 12.7 18 Norte 34 Norte 0 1021 0.5 62
2017-11-08 02:00:00 12.4 16 Norte 27 Norte 0 1021 0.7 61
2017-11-08 01:00:00 12.3 14 Nordeste 30 Norte 0 1020.7 0.9 68
2017-11-08 00:00:00 12.8 18 Norte 39 Norte 0 1020.5 1 71
2017-11-07 23:00:00 12.3 17 Norte 43 Norte 0 1020.3 1.4 79
2017-11-07 22:00:00 12.5 24 Norte 46 Norte 0 1019.8 1.3 78
2017-11-07 21:00:00 12.2 14 Nordeste 42 Norte 0 1019.5 1.7 82
2017-11-07 20:00:00 13.2 22 Norte 40 Norte 0 1018.9 1.3 79
2017-11-07 19:00:00 13.4 22 Norte 35 Norte 0 1018.5 1.4 74
2017-11-07 18:00:00 13.8 15 Norte 33 Noroeste 0 1017.8 1.1 75
2017-11-07 17:00:00 14.1 20 Noroeste 34 Noroeste 0 1017.6 1.2 75
2017-11-07 16:00:00 14.1 19 Norte 33 Norte 0 1017.1 1.1 73
2017-11-07 15:00:00 13.4 8 Norte 15 Norte 0 1016.7 0.9 91
2017-11-07 14:00:00 12.4 7 Noroeste 21 Norte 1.2 1016.4 1.1 94
2017-11-07 13:00:00 12.1 4 Sudeste 16 Nordeste 0.8 1016 0.8 92
2017-11-07 12:00:00 12.4 7 Sudeste 17 Sur 0 1015.8 0.6 83
2017-11-07 11:00:00 12.2 8 Sur 15 Sur 0 1015.3 0.3 79
2017-11-07 10:00:00 10.9 8 Sur 17 Sur 0 1015.2 0.2 82
2017-11-07 09:00:00 9.4 10 Sur 14 Sur 0 1015.2 0.2 87
2017-11-07 08:00:00 8.6 9 Sur 13 Sur 0 1015 0 91
2017-11-07 07:00:00 7.8 6 Sur 17 Sudeste 0 1015 0 90
2017-11-07 06:00:00 8.2 6 Sur 11 Sur 0 1015 -0.2 93
2017-11-07 05:00:00 8 2 Sudoeste 5 Sudeste 0 1015 -0.7 93
2017-11-07 04:00:00 8.4 0 Calma 5 Noroeste 0 1015 -1.2 92
2017-11-07 03:00:00 8.8 2 Sur 6 Sur 0 1015.2 -1.5 91
2017-11-07 02:00:00 9.3 4 Sur 7 Sur 0 1015.7 -1.5 91
2017-11-07 01:00:00 9.8 2 Este 8 Sur 0 1016.2 -1.3 88
2017-11-07 00:00:00 10.5 5 Sudeste 8 Este 0 1016.7 -0.9 88
2017-11-06 23:00:00 11.1 4 Este 10 Este 0 1017.2 -0.5 86
2017-11-06 22:00:00 11.7 5 Nordeste 12 Este 0 1017.5 -0.2 83
2017-11-06 21:00:00 12.2 7 Nordeste 17 Este 0 1017.6 -0.2 82
2017-11-06 20:00:00 12.9 11 Nordeste 22 Nordeste 0 1017.7 -0.6 82
2017-11-06 19:00:00 13.3 12 Nordeste 22 Nordeste 0 1017.7 -0.9 80
2017-11-06 18:00:00 13.7 11 Norte 21 Norte 0 1017.8 -1.3 82
2017-11-06 17:00:00 13.8 12 Norte 18 Norte 0 1018.3 -1.5 80
2017-11-06 16:00:00 14.1 11 Noroeste 17 Noroeste 0 1018.6 -2 77
2017-11-06 15:00:00 15 12 Norte 17 Norte 0 1019.1 -2.1 74
2017-11-06 14:00:00 13.9 5 Noroeste 13 Norte 0 1019.8 -1.9 79
2017-11-06 13:00:00 14.7 8 Nordeste 14 Norte 0 1020.6 -1.4 76
2017-11-06 12:00:00 14 6 Nordeste 10 Nordeste 0 1021.2 -0.6 77
2017-11-06 11:00:00 11.8 4 Sudeste 8 Sudeste 0 1021.7 0.2 86
2017-11-06 10:00:00 10.6 5 Sudeste 8 Sudeste 0 1022 0.5 92
2017-11-06 09:00:00 8.9 3 Sur 7 Sur 0 1021.8 0.1 95
2017-11-06 08:00:00 8.8 4 Sudeste 6 Sur 0 1021.5 -0.4 94
2017-11-06 07:00:00 9.3 3 Sur 7 Sur 0 1021.5 -0.4 93
2017-11-06 06:00:00 9.8 5 Sur 10 Sur 0 1021.7 -0.6 94
2017-11-06 05:00:00 10.2 3 Sur 10 Sur 0 1021.9 -0.6 93
2017-11-06 04:00:00 10.6 4 Sudeste 9 Sudeste 0 1021.9 -0.8 93
2017-11-06 03:00:00 11.2 6 Sudeste 9 Sudeste 0 1022.3 -0.6 92
2017-11-06 02:00:00 11.5 6 Sudeste 8 Sudeste 0 1022.5 -0.3 92
2017-11-06 01:00:00 11.8 0 Calma 8 Este 0 1022.7 0.1 91
2017-11-06 00:00:00 12 4 Sudeste 5 Sudeste 0 1022.9 0.4 91
2017-11-05 23:00:00 11.9 2 Este 4 Sudoeste 0.2 1022.8 0.5 90
2017-11-05 22:00:00 12 4 Oeste 23 Nordeste 0 1022.6 0.6 90
2017-11-05 21:00:00 12.6 12 Nordeste 19 Nordeste 0 1022.5 0.8 82
2017-11-05 20:00:00 13 9 Norte 21 Norte 0 1022.3 0.8 82
2017-11-05 19:00:00 13.5 14 Norte 25 Norte 0 1022 0.5 74
2017-11-05 18:00:00 13.3 14 Norte 27 Nordeste 0 1021.7 0.4 82
2017-11-05 17:00:00 13.6 8 Norte 17 Norte 0 1021.5 0 78
2017-11-05 16:00:00 14 13 Norte 28 Norte 0 1021.5 -0.1 77
2017-11-05 15:00:00 14.8 14 Norte 24 Norte 0 1021.3 -0.4 67
2017-11-05 14:00:00 14.2 10 Noroeste 23 Oeste 0.2 1021.5 0 73
2017-11-05 13:00:00 14.2 12 Noroeste 26 Noroeste 0 1021.6 0.6 73
2017-11-05 12:00:00 15.2 10 Noroeste 19 Norte 0 1021.7 1.3 65
2017-11-05 11:00:00 14.8 10 Norte 21 Norte 0 1021.5 1.9 71
2017-11-05 10:00:00 13.5 4 Nordeste 10 Este 0 1021 1.9 75
2017-11-05 09:00:00 12.9 9 Norte 24 Norte 0 1020.4 1.7 79
2017-11-05 08:00:00 12.7 9 Norte 22 Norte 0 1019.6 1.6 79
2017-11-05 07:00:00 12.8 17 Norte 28 Noroeste 0 1019.1 1 79
2017-11-05 06:00:00 12.3 9 Noroeste 31 Norte 0 1018.7 0.9 81
2017-11-05 05:00:00 13 8 Noroeste 28 Norte 0 1018 0.6 74
2017-11-05 04:00:00 13.3 14 Norte 28 Norte 0 1018.1 0.9 69
2017-11-05 03:00:00 13.3 18 Norte 31 Norte 0 1017.8 1.4 68
2017-11-05 02:00:00 13.5 20 Norte 35 Norte 0 1017.4 1.5 68
2017-11-05 01:00:00 13.8 19 Norte 32 Norte 0 1017.2 2.1 69
2017-11-05 00:00:00 13.9 18 Norte 38 Norte 0 1016.4 2 70
2017-11-04 23:00:00 13.5 22 Norte 44 Noroeste 0 1015.9 2.4 76
2017-11-04 22:00:00 14.1 18 Norte 38 Noroeste 0 1015.1 2.6 75
2017-11-04 21:00:00 13.9 20 Norte 47 Norte 0 1014.4 3 77
2017-11-04 20:00:00 14.3 22 Norte 43 Norte 0 1013.5 3 78
2017-11-04 19:00:00 14.1 20 Norte 36 Norte 0 1012.5 3.3 82
2017-11-04 18:00:00 14.7 18 Norte 36 Norte 0 1011.4 3.4 75
2017-11-04 17:00:00 13.7 19 Norte 48 Norte 0 1010.5 2.8 91
2017-11-04 16:00:00 14.5 27 Norte 51 Norte 0 1009.2 1.8 89
2017-11-04 15:00:00 16.4 11 Noroeste 23 Noroeste 0 1008 0.6 84
2017-11-04 14:00:00 16.7 10 Noroeste 20 Norte 0 1007.7 1 86
2017-11-04 13:00:00 16.9 7 Noroeste 14 Oeste 0 1007.4 1.4 86
2017-11-04 12:00:00 16.4 6 Noroeste 11 Oeste 0 1007.4 2.4 88
2017-11-04 11:00:00 14.9 3 Noroeste 8 Noroeste 0 1006.7 2.4 94
2017-11-04 10:00:00 14.4 0 Calma 10 Norte 0.4 1006 2.3 96
2017-11-04 09:00:00 14 2 Noroeste 11 Oeste 0 1005 1.7 95
2017-11-04 08:00:00 13.7 8 Oeste 12 Oeste 0 1004.3 1.4 93
2017-11-04 07:00:00 13.5 4 Noroeste 6 Noroeste 0 1003.7 1.1 92
2017-11-04 06:00:00 13.3 0 Calma 6 Noroeste 0 1003.3 0.7 92
2017-11-04 05:00:00 13.6 0 Calma 9 Sur 0 1002.9 0.1 92
2017-11-04 04:00:00 13.8 3 Sudeste 6 Sudeste 0 1002.6 -0.3 92
2017-11-04 03:00:00 13.8 0 Calma 7 Este 0 1002.6 -0.2 92
2017-11-04 02:00:00 14 4 Este 8 Sudeste 0 1002.8 -0.2 92
2017-11-04 01:00:00 14.3 5 Este 11 Sudeste 0 1002.9 0.1 90
2017-11-04 00:00:00 14.6 6 Sudeste 10 Sudeste 0 1002.8 0.2 89
2017-11-03 23:00:00 15.1 4 Sudeste 12 Sudeste 0 1003 0.5 87
2017-11-03 22:00:00 15.6 7 Sudeste 14 Sur 0.2 1002.8 0.7 83
2017-11-03 21:00:00 15.9 7 Sudeste 11 Sudeste 0 1002.6 0.6 80
2017-11-03 20:00:00 16 3 Este 8 Este 0 1002.5 0.4 81
2017-11-03 19:00:00 16.6 4 Este 12 Sur 0 1002.1 0.3 78
2017-11-03 18:00:00 17 7 Sudeste 17 Sur 0 1002 0.1 72
2017-11-03 17:00:00 17.5 4 Sudeste 20 Sur 0 1002.1 -0.2 70
2017-11-03 16:00:00 18 8 Sudeste 18 Sudoeste 0 1001.8 -0.6 69
2017-11-03 15:00:00 18.1 7 Sudoeste 20 Sur 0 1001.9 -1 67
2017-11-03 14:00:00 18 7 Sudeste 17 Sudeste 0 1002.3 -0.8 66
2017-11-03 13:00:00 18.2 6 Sudeste 19 Sudeste 0 1002.4 -0.6 65
2017-11-03 12:00:00 15.8 8 Sudeste 17 Sudeste 0 1002.9 0.2 77
2017-11-03 11:00:00 14.6 2 Este 16 Sudeste 0 1003.1 1 83
2017-11-03 10:00:00 14.2 8 Sudeste 16 Sudeste 0 1003 0.6 83
2017-11-03 09:00:00 14.4 5 Este 16 Sudeste 0 1002.7 0.2 82
2017-11-03 08:00:00 14.6 4 Este 18 Sudeste 0 1002.1 -0.7 79
2017-11-03 07:00:00 14.2 11 Sudeste 16 Sudeste 0 1002.4 -0.8 83
2017-11-03 06:00:00 14.5 9 Sudeste 15 Sur 0 1002.5 -0.9 83
2017-11-03 05:00:00 14.4 11 Sudeste 24 Sur 0 1002.8 -1.4 84
2017-11-03 04:00:00 14.4 11 Sudeste 18 Sudeste 0 1003.2 -1.4 85
2017-11-03 03:00:00 14.5 4 Sudeste 18 Sur 0.2 1003.4 -1.2 85
2017-11-03 02:00:00 14.6 5 Sudeste 15 Sudeste 0 1004.2 -0.6 85
2017-11-03 01:00:00 14.6 6 Sudeste 14 Sur 0 1004.6 -0.3 87
2017-11-03 00:00:00 14.7 3 Sudeste 15 Sudeste 0 1004.6 -0.7 87
2017-11-02 23:00:00 14.8 10 Sudeste 15 Sudeste 0 1004.8 -0.2 91
2017-11-02 22:00:00 15.6 8 Sudeste 11 Sudeste 0.4 1004.9 0.6 88
2017-11-02 21:00:00 16.2 7 Sudoeste 14 Sur 1.6 1005.3 1.3 84
2017-11-02 20:00:00 16.9 4 Sudeste 18 Sudeste 0.4 1005 1.1 81
2017-11-02 19:00:00 17.6 8 Sudeste 17 Sur 0 1004.3 0.4 75
2017-11-02 18:00:00 18.2 6 Sur 26 Sur 0 1004 0 72
2017-11-02 17:00:00 19.2 12 Sur 31 Sur 0 1003.9 -0.3 68
2017-11-02 16:00:00 19.7 11 Sur 34 Sur 0 1003.9 -0.8 64
2017-11-02 15:00:00 19.8 10 Sur 36 Sudoeste 0 1004 -1.5 67
2017-11-02 14:00:00 18.9 14 Sur 30 Sur 0 1004.2 -2.1 71
2017-11-02 13:00:00 15.2 6 Sudeste 24 Sudeste 0 1004.7 -2.1 94
2017-11-02 12:00:00 14.4 8 Sudeste 26 Sudeste 0.8 1005.5 -0.4 92
2017-11-02 11:00:00 13.9 12 Sudeste 23 Sudeste 5 1006.3 1.1 95
2017-11-02 10:00:00 14 8 Sudoeste 37 Sudoeste 4.8 1006.8 1.8 93
2017-11-02 09:00:00 15.5 3 Sudeste 7 Este 0.2 1005.9 0.7 92
2017-11-02 08:00:00 15.5 5 Sudeste 14 Este 0 1005.2 -0.5 91
2017-11-02 07:00:00 15.3 6 Sudeste 15 Sudeste 0 1005 -0.7 93
2017-11-02 06:00:00 15.5 8 Sudeste 14 Sur 0 1005.2 -0.8 92
2017-11-02 05:00:00 16.1 3 Este 16 Sudeste 0.6 1005.7 -0.3 90
2017-11-02 04:00:00 16.8 9 Sudeste 19 Sur 0 1005.7 -0.5 81
2017-11-02 03:00:00 17.4 7 Sudeste 22 Sudeste 0 1006 -0.7 76
2017-11-02 02:00:00 16.4 3 Nordeste 9 Sudeste 0 1006 -0.4 83
2017-11-02 01:00:00 16.7 5 Sudeste 9 Sudeste 0 1006.2 -0.2 81
2017-11-02 00:00:00 17.4 4 Oeste 19 Sudoeste 0 1006.7 0.2 77
2017-11-01 23:00:00 17.4 4 Este 6 Sudeste 0 1006.4 -0.2 74
2017-11-01 22:00:00 17.9 3 Sur 9 Sudeste 0 1006.4 -0.5 71
2017-11-01 21:00:00 18.3 4 Sudeste 16 Sur 0 1006.5 -0.1 70
2017-11-01 20:00:00 18.5 7 Sudeste 22 Sudoeste 0 1006.6 -0.1 70
2017-11-01 19:00:00 18.9 10 Sur 21 Sur 0 1006.9 -0.1 69
2017-11-01 18:00:00 19.1 10 Sudeste 24 Sur 0 1006.6 -0.3 67
2017-11-01 17:00:00 19.4 10 Sur 25 Sudoeste 0 1006.7 -0.8 67
2017-11-01 16:00:00 19.3 15 Sur 34 Sur 0 1007 -0.9 67
2017-11-01 15:00:00 19.7 12 Sur 32 Sudoeste 0 1006.9 -1.5 67
2017-11-01 14:00:00 19.5 14 Sur 33 Sur 0 1007.5 -0.9 65
2017-11-01 13:00:00 19.5 16 Sur 39 Sur 0 1007.9 -0.9 63
2017-11-01 12:00:00 19.7 15 Sur 32 Sur 0 1008.4 0.1 56
2017-11-01 11:00:00 18 14 Sur 24 Sur 0 1008.4 0.7 55
2017-11-01 10:00:00 15.7 4 Este 23 Sudeste 0 1008.8 1.4 65
2017-11-01 09:00:00 15.8 13 Sudeste 23 Sur 0 1008.3 0.8 64
2017-11-01 08:00:00 15.2 11 Sur 19 Sur 0 1007.7 0.1 60
2017-11-01 07:00:00 14.7 7 Sudeste 12 Sudeste 0 1007.4 -0.5 60
2017-11-01 06:00:00 13.7 4 Este 6 Este 0 1007.5 -0.5 66
2017-11-01 05:00:00 13.7 4 Este 8 Este 0 1007.6 -0.5 65
2017-11-01 04:00:00 13.7 6 Este 9 Este 0 1007.9 -0.8 63
2017-11-01 03:00:00 13.6 4 Sudeste 9 Sur 0 1008 -0.9 65
2017-11-01 02:00:00 13.8 5 Sudeste 15 Sudeste 0 1008.1 -1.2 64
2017-11-01 01:00:00 14.3 5 Sudeste 16 Sudeste 0 1008.7 -0.9 65
2017-11-01 00:00:00 14.5 10 Sur 19 Sudeste 0 1008.9 -0.7 69
2017-10-31 23:00:00 14.8 7 Sudeste 13 Sudeste 0 1009.3 -0.3 73
2017-10-31 22:00:00 14.8 3 Sudeste 10 Sur 0 1009.6 0 75
2017-10-31 21:00:00 15.8 6 Sudeste 13 Sur 0 1009.6 -0.2 71
2017-10-31 20:00:00 15.7 4 Este 6 Sudeste 0 1009.6 0.1 69
2017-10-31 19:00:00 15.9 0 Calma 6 Noroeste 0 1009.6 0.4 68
2017-10-31 18:00:00 16.8 5 Oeste 10 Norte 0 1009.8 0 66
2017-10-31 17:00:00 17.7 5 Noroeste 8 Oeste 0 1009.5 -0.7 62
2017-10-31 16:00:00 17.8 5 Noroeste 13 Norte 0 1009.2 -1.4 65
2017-10-31 15:00:00 18.2 8 Norte 13 Sudeste 0 1009.8 -1.7 63
2017-10-31 14:00:00 20.3 5 Este 14 Este 0 1010.2 -1.4 51
2017-10-31 13:00:00 18.5 9 Este 17 Este 0 1010.6 -1.5 55
2017-10-31 12:00:00 17.1 9 Sudeste 21 Este 0 1011.5 -0.3 58
2017-10-31 11:00:00 14.9 16 Sudeste 27 Sudeste 0 1011.6 0.2 61
2017-10-31 10:00:00 13.3 16 Sudeste 29 Sudeste 0 1012.1 0.5 66
2017-10-31 09:00:00 11.7 15 Sudeste 26 Sudeste 0 1011.8 -0.2 72
2017-10-31 08:00:00 11.4 15 Sudeste 26 Sudeste 0 1011.4 -0.7 73
2017-10-31 07:00:00 11.5 11 Sudeste 19 Sudeste 0 1011.6 -0.9 71
2017-10-31 06:00:00 11.5 9 Sudeste 20 Este 0 1012 -1 75
2017-10-31 05:00:00 12 10 Este 21 Este 0 1012.1 -1.1 77
2017-10-31 04:00:00 12.8 13 Este 26 Este 0 1012.5 -1 74
2017-10-31 03:00:00 13.2 15 Este 25 Este 0 1013 -0.7 74
2017-10-31 02:00:00 13.7 15 Este 25 Este 0 1013.2 -0.8 75
2017-10-31 01:00:00 14.3 19 Este 31 Nordeste 0 1013.5 -0.5 74
2017-10-31 00:00:00 14.7 21 Este 32 Este 0 1013.7 -0.2 73
2017-10-30 23:00:00 15.1 15 Este 34 Este 0 1014 0.1 73
2017-10-30 22:00:00 15.5 21 Nordeste 44 Nordeste 0 1014 0 73
2017-10-30 21:00:00 15.8 22 Nordeste 38 Este 0 1013.9 0.2 75
2017-10-30 20:00:00 15.8 15 Nordeste 28 Nordeste 0 1013.9 0 77
2017-10-30 19:00:00 16.3 18 Nordeste 29 Este 0 1014 0 72
2017-10-30 18:00:00 16.7 21 Nordeste 35 Nordeste 0 1013.7 -0.9 74
2017-10-30 17:00:00 17 21 Nordeste 36 Nordeste 0 1013.9 -1.4 72
2017-10-30 16:00:00 17.4 23 Nordeste 42 Nordeste 0 1014 -1.8 70
2017-10-30 15:00:00 17.8 23 Nordeste 35 Nordeste 0 1014.6 -2.1 69
2017-10-30 14:00:00 17.3 19 Nordeste 39 Nordeste 0 1015.3 -1.6 71
2017-10-30 13:00:00 17.1 23 Nordeste 34 Nordeste 0 1015.8 -1.3 71
2017-10-30 12:00:00 16.5 15 Nordeste 28 Nordeste 0 1016.7 -0.2 74
2017-10-30 11:00:00 15.6 19 Nordeste 37 Nordeste 0 1016.9 0.4 78
2017-10-30 10:00:00 15.2 16 Nordeste 26 Nordeste 0 1017.1 0.4 87
2017-10-30 09:00:00 14.7 17 Nordeste 27 Nordeste 0 1016.9 0.1 90
2017-10-30 08:00:00 14.4 14 Nordeste 27 Nordeste 0 1016.5 -0.5 92
2017-10-30 07:00:00 14.5 14 Nordeste 23 Nordeste 0 1016.7 -0.5 92
2017-10-30 06:00:00 14.4 18 Nordeste 33 Nordeste 0 1016.8 -0.7 91
2017-10-30 05:00:00 14.4 16 Nordeste 28 Nordeste 0 1017 -0.7 95
2017-10-30 04:00:00 14.5 18 Nordeste 27 Norte 0 1017.2 -0.8 94
2017-10-30 03:00:00 14.5 15 Nordeste 23 Nordeste 0 1017.5 -0.5 90
2017-10-30 02:00:00 15.5 17 Nordeste 30 Este 0 1017.7 -0.5 82
2017-10-30 01:00:00 15.7 17 Nordeste 34 Nordeste 0 1018 -0.3 76
2017-10-30 00:00:00 15.7 20 Nordeste 35 Nordeste 0 1018 -0.3 77
2017-10-29 23:00:00 15.6 21 Nordeste 34 Nordeste 0 1018.2 -0.2 81
2017-10-29 22:00:00 15.1 18 Nordeste 27 Nordeste 0 1018.3 0 85
2017-10-29 21:00:00 15.4 17 Nordeste 30 Nordeste 0 1018.3 0.2 83
2017-10-29 20:00:00 16.3 19 Nordeste 31 Nordeste 0 1018.4 0.3 79
2017-10-29 19:00:00 16.6 21 Nordeste 37 Nordeste 0 1018.3 0.1 77
2017-10-29 18:00:00 17 15 Nordeste 32 Nordeste 0 1018.1 -0.2 77
2017-10-29 17:00:00 17.7 23 Nordeste 42 Nordeste 0 1018.1 -0.5 73
2017-10-29 16:00:00 18.5 21 Nordeste 38 Nordeste 0 1018.2 -1.3 70
2017-10-29 15:00:00 19.3 23 Nordeste 41 Este 0 1018.3 -1.8 68
2017-10-29 14:00:00 19.4 25 Nordeste 39 Nordeste 0 1018.6 -1.5 65
2017-10-29 13:00:00 19.4 18 Nordeste 33 Nordeste 0 1019.5 -0.4 66
2017-10-29 12:00:00 18.6 9 Nordeste 18 Nordeste 0 1020.1 0.5 70
2017-10-29 11:00:00 17 9 Este 15 Este 0 1020.1 0.9 76
2017-10-29 10:00:00 15.7 4 Este 6 Este 0 1019.9 0.7 85
2017-10-29 09:00:00 13.3 3 Este 6 Este 0 1019.6 0.4 94
2017-10-29 08:00:00 12.7 4 Este 6 Este 0 1019.2 0.1 94
2017-10-29 07:00:00 13 4 Este 10 Este 0 1019.2 -0.1 94
2017-10-29 06:00:00 13.2 3 Sudeste 8 Sudeste 0 1019.2 -0.3 93
2017-10-29 05:00:00 13.1 0 Calma 5 Este 0 1019.1 -0.7 92
2017-10-29 04:00:00 13.4 3 Nordeste 11 Este 0 1019.3 -0.8 91
2017-10-29 03:00:00 13.7 3 Este 11 Este 0 1019.5 -0.5 89
2017-10-29 02:00:00 14.2 9 Este 19 Este 0 1019.8 -0.4 89
2017-10-29 01:00:00 14.6 3 Este 8 Este 0 1020 0.1 85
2017-10-29 00:00:00 14.9 4 Este 7 Nordeste 0 1020.2 -0.1 83
2017-10-28 23:00:00 15.4 6 Nordeste 13 Este 0 1020 -0.1 81
2017-10-28 22:00:00 16 6 Este 23 Este 0 1019.9 0.5 80
2017-10-28 21:00:00 16.5 9 Nordeste 20 Nordeste 0 1020.3 0.8 79
2017-10-28 20:00:00 17.4 8 Norte 22 Nordeste 0 1020.1 0.5 75
2017-10-28 19:00:00 17.1 8 Oeste 16 Norte 0 1019.4 -0.3 82
2017-10-28 18:00:00 17.2 8 Oeste 31 Norte 0 1019.5 -0.7 82
2017-10-28 17:00:00 18 11 Norte 24 Norte 0 1019.6 -1.3 78
2017-10-28 16:00:00 18.4 9 Norte 23 Norte 0 1019.7 -1.8 76
2017-10-28 15:00:00 19.1 9 Norte 17 Norte 0 1020.2 -1.5 73
2017-10-28 14:00:00 19.7 9 Norte 13 Norte 0 1020.9 -1.1 69
2017-10-28 13:00:00 18.9 10 Nordeste 13 Nordeste 0 1021.5 -0.5 70
2017-10-28 12:00:00 17.7 5 Este 11 Nordeste 0 1021.7 -0.1 76
2017-10-28 11:00:00 16.6 5 Este 9 Sudeste 0 1022 0.2 81
2017-10-28 10:00:00 14.6 5 Sudeste 10 Este 0 1022 0 91
2017-10-28 09:00:00 14.1 6 Este 10 Este 0 1021.8 -0.4 91
2017-10-28 08:00:00 14.2 5 Sudeste 8 Sudeste 0 1021.8 -0.6 91
2017-10-28 07:00:00 14.4 6 Sudeste 11 Este 0 1022 -0.8 91
2017-10-28 06:00:00 14.5 4 Este 10 Nordeste 0 1022.2 -0.8 92
2017-10-28 05:00:00 14.9 6 Nordeste 12 Este 0 1022.4 -0.8 92
2017-10-28 04:00:00 15.1 5 Sudeste 7 Sudeste 0 1022.8 -0.7 91
2017-10-28 03:00:00 15.3 3 Sudeste 9 Este 0 1023 -1 90
2017-10-28 02:00:00 15.6 3 Este 6 Este 0 1023.2 -0.7 89
2017-10-28 01:00:00 16.3 3 Este 13 Sudeste 0 1023.5 0 85
2017-10-28 00:00:00 16.6 7 Este 13 Este 0 1024 0.7 84
2017-10-27 23:00:00 17.3 7 Este 13 Este 0 1023.9 1 80
2017-10-27 22:00:00 18.1 3 Sudeste 7 Norte 0 1023.5 0.8 79
2017-10-27 21:00:00 18.9 4 Norte 12 Norte 0 1023.3 0.7 76
2017-10-27 20:00:00 20.2 7 Norte 13 Nordeste 0 1022.9 -0.1 68
2017-10-27 19:00:00 20.7 3 Nordeste 14 Norte 0 1022.7 -0.1 60
2017-10-27 18:00:00 21.8 6 Noroeste 11 Noroeste 0 1022.6 -0.7 53
2017-10-27 17:00:00 23 8 Noroeste 12 Noroeste 0 1023 -0.9 50
2017-10-27 16:00:00 24.4 3 Nordeste 4 Norte 0 1022.8 -1 48
2017-10-27 15:00:00 23.8 3 Este 7 Nordeste 0 1023.3 -0.6 50
2017-10-27 14:00:00 24 5 Norte 8 Nordeste 0 1023.9 0.4 48
2017-10-27 13:00:00 23.5 3 Este 11 Sudeste 0 1023.8 0.9 50
2017-10-27 12:00:00 21.3 4 Este 9 Sudeste 0 1023.9 1.6 56
2017-10-27 11:00:00 18.9 7 Sudeste 12 Sur 0 1023.5 1.6 61
2017-10-27 10:00:00 16.5 7 Sudeste 14 Sudeste 0 1022.9 1.4 73
2017-10-27 09:00:00 15.6 5 Sudeste 9 Sur 0 1022.3 1.3 78
2017-10-27 08:00:00 16.1 10 Sudeste 21 Sudeste 0 1021.9 0.9 75
2017-10-27 07:00:00 16 10 Sudeste 15 Sudeste 0 1021.5 0.5 79
2017-10-27 06:00:00 16 9 Sudeste 14 Sudeste 0 1021 0.1 79
2017-10-27 05:00:00 15.8 8 Sudeste 15 Sudeste 0 1021 -0.1 82
2017-10-27 04:00:00 16 6 Sudeste 17 Sudeste 0 1021 -0.1 82
2017-10-27 03:00:00 16.2 11 Sudeste 17 Sudeste 0 1020.9 -0.3 83
2017-10-27 02:00:00 16.1 8 Sudeste 14 Sudeste 0 1021.1 0.1 87
2017-10-27 01:00:00 16.3 5 Sudeste 11 Sudeste 0 1021.1 0.6 87
2017-10-27 00:00:00 16.8 5 Sudeste 9 Sudeste 0 1021.2 1 86
2017-10-26 23:00:00 16.6 3 Sudeste 5 Sudeste 0 1021 1.4 86
2017-10-26 22:00:00 17 2 Nordeste 10 Norte 0 1020.5 1.6 84
2017-10-26 21:00:00 17.2 4 Norte 9 Norte 0 1020.2 1.9 84
2017-10-26 20:00:00 17.6 4 Norte 9 Norte 0 1019.6 1.5 84
2017-10-26 19:00:00 18.4 6 Norte 11 Norte 0 1018.9 1 79
2017-10-26 18:00:00 20 7 Oeste 14 Noroeste 0 1018.3 0.2 68
2017-10-26 17:00:00 21.4 9 Norte 14 Norte 0 1018.1 0 59
2017-10-26 16:00:00 22.5 6 Norte 16 Sudeste 0 1017.9 -0.1 55
2017-10-26 15:00:00 23.3 4 Norte 21 Sudeste 0 1018.1 0.3 54
2017-10-26 14:00:00 23.2 7 Sur 24 Sudoeste 0 1018.1 0.2 50
2017-10-26 13:00:00 22 8 Sudoeste 23 Sur 0 1018 0.7 54
2017-10-26 12:00:00 21 11 Sur 31 Sur 0 1017.8 1.5 60
2017-10-26 11:00:00 19.3 11 Sur 28 Sur 0 1017.9 2.5 68
2017-10-26 10:00:00 18.4 3 Nordeste 17 Sur 0 1017.3 2.3 73
2017-10-26 09:00:00 17.8 4 Sudoeste 27 Sur 0 1016.3 1.7 75
2017-10-26 08:00:00 17.9 14 Sur 30 Sur 0 1015.4 0.6 74
2017-10-26 07:00:00 17.2 17 Sudeste 28 Sudeste 0 1015 0 76
2017-10-26 06:00:00 15.9 13 Sudeste 21 Sudeste 0 1014.6 -0.1 79
2017-10-26 05:00:00 15.8 10 Sudeste 15 Sudeste 0 1014.8 0.1 72
2017-10-26 04:00:00 16.7 7 Sudeste 18 Sudeste 0 1015 0.3 69
2017-10-26 03:00:00 16.6 10 Sudeste 17 Sur 0 1014.7 0.2 67
2017-10-26 02:00:00 16.3 7 Sudeste 12 Sudeste 0 1014.7 0.9 65
2017-10-26 01:00:00 17.3 9 Sudeste 13 Sudeste 0 1014.7 1.5 57
2017-10-26 00:00:00 18 8 Sudoeste 16 Sudoeste 0 1014.5 2 54